Time;durP1;ratioP1;P1;durP2;ratioP2;P2;SDS_P1;SDS_P2;PMS_P1;PMS_P2;Temp;Humidity;BMP_temperature;BMP_pressure;BME280_temperature;BME280_humidity;BME280_pressure;Samples;Min_cycle;Max_cycle;Signal;HPM_P1;HPM_P2
2021/01/25 00:01:15;;;;;;;16.10;7.10;;;4.40;99.90;;;;;;5008282;28;20668;-80
2021/01/25 00:03:41;;;;;;;10.50;6.17;;;4.50;99.90;;;;;;5025559;28;20193;-80
2021/01/25 00:06:17;;;;;;;9.17;4.87;;;4.50;99.90;;;;;;5022644;28;20190;-81
2021/01/25 00:08:43;;;;;;;15.77;6.30;;;4.50;99.90;;;;;;5022151;28;20173;-79
2021/01/25 00:11:11;;;;;;;11.70;5.90;;;4.60;99.90;;;;;;5018851;28;20249;-80
2021/01/25 00:13:37;;;;;;;13.93;6.40;;;4.60;99.90;;;;;;5020847;28;20210;-79
2021/01/25 00:16:04;;;;;;;11.53;5.67;;;4.60;99.90;;;;;;5004761;28;20573;-80
2021/01/25 00:18:31;;;;;;;16.08;6.22;;;4.50;99.90;;;;;;5020723;28;20500;-79
2021/01/25 00:20:58;;;;;;;12.85;6.70;;;4.60;99.90;;;;;;5003584;28;20206;-80
2021/01/25 00:23:24;;;;;;;14.77;6.07;;;4.50;99.90;;;;;;5020611;28;20174;-79
2021/01/25 00:25:50;;;;;;;8.27;5.27;;;4.50;99.90;;;;;;5021870;28;20259;-80
2021/01/25 00:28:19;;;;;;;11.80;5.63;;;4.60;99.90;;;;;;5004522;28;20680;-80
2021/01/25 00:30:44;;;;;;;11.05;5.93;;;4.60;99.90;;;;;;4989697;28;20913;-80
2021/01/25 00:33:10;;;;;;;9.73;6.33;;;4.60;99.90;;;;;;5019592;28;20202;-80
2021/01/25 00:35:36;;;;;;;11.93;6.67;;;4.60;99.90;;;;;;5019696;28;20236;-80
2021/01/25 00:38:02;;;;;;;10.93;6.57;;;4.60;99.90;;;;;;5019798;28;20755;-79
2021/01/25 00:40:28;;;;;;;11.27;6.20;;;4.60;99.90;;;;;;5004319;28;20174;-79
2021/01/25 00:42:53;;;;;;;9.10;4.50;;;4.60;99.90;;;;;;5022737;28;20384;-78
2021/01/25 00:45:19;;;;;;;14.87;6.03;;;4.60;99.90;;;;;;5017303;28;20193;-80
2021/01/25 00:47:45;;;;;;;9.47;5.97;;;4.60;99.90;;;;;;5016025;28;20572;-80
2021/01/25 00:50:10;;;;;;;10.03;5.80;;;4.60;99.90;;;;;;5013862;28;20206;-80
2021/01/25 00:52:36;;;;;;;11.20;5.87;;;4.60;99.90;;;;;;4998149;28;20201;-80
2021/01/25 00:55:03;;;;;;;6.37;4.20;;;4.60;99.90;;;;;;5014137;28;20170;-80
2021/01/25 00:57:35;;;;;;;7.47;4.50;;;4.50;99.90;;;;;;5015624;28;20652;-80
2021/01/25 01:00:01;;;;;;;7.13;4.35;;;4.60;99.90;;;;;;5013794;28;20178;-80
2021/01/25 01:02:26;;;;;;;9.13;4.20;;;4.60;99.90;;;;;;5015063;28;20261;-80
2021/01/25 01:04:52;;;;;;;7.10;4.00;;;4.60;99.90;;;;;;5016158;28;20437;-80
2021/01/25 01:07:17;;;;;;;8.80;5.73;;;4.60;99.90;;;;;;4998511;28;20743;-81
2021/01/25 01:09:43;;;;;;;11.70;5.67;;;4.60;99.90;;;;;;5014880;28;20209;-81
2021/01/25 01:12:09;;;;;;;9.07;5.13;;;4.60;99.90;;;;;;4997415;28;20183;-79
2021/01/25 01:14:35;;;;;;;7.17;4.40;;;4.60;99.90;;;;;;5015311;28;20757;-80
2021/01/25 01:17:00;;;;;;;9.37;5.80;;;4.60;99.90;;;;;;5013792;28;20464;-79
2021/01/25 01:19:26;;;;;;;7.47;4.20;;;4.70;99.90;;;;;;5013571;28;20166;-79
2021/01/25 01:21:51;;;;;;;10.60;6.43;;;4.60;99.90;;;;;;5013967;28;20166;-79
2021/01/25 01:24:17;;;;;;;11.60;6.07;;;4.60;99.90;;;;;;5014178;28;20233;-79
2021/01/25 01:26:43;;;;;;;6.30;4.27;;;4.40;99.90;;;;;;5012776;28;20294;-79
2021/01/25 01:29:09;;;;;;;11.50;6.90;;;4.50;99.90;;;;;;5013138;28;20178;-80
2021/01/25 01:31:34;;;;;;;8.82;4.47;;;4.50;99.90;;;;;;5018251;28;20580;-78
2021/01/25 01:34:00;;;;;;;10.37;5.80;;;4.50;99.90;;;;;;5015072;28;20293;-80
2021/01/25 01:36:26;;;;;;;11.23;6.00;;;4.30;99.90;;;;;;5013256;28;20197;-79
2021/01/25 01:38:51;;;;;;;11.33;5.53;;;4.40;99.90;;;;;;5012336;28;20166;-79
2021/01/25 01:41:17;;;;;;;10.47;6.03;;;4.40;99.90;;;;;;5012670;28;20185;-79
2021/01/25 01:43:43;;;;;;;10.37;5.53;;;4.40;99.90;;;;;;5012990;28;20652;-79
2021/01/25 01:46:08;;;;;;;18.10;6.60;;;4.50;99.90;;;;;;4980418;28;20263;-79
2021/01/25 01:48:34;;;;;;;11.20;5.97;;;4.60;99.90;;;;;;4980429;28;20177;-79
2021/01/25 01:51:00;;;;;;;15.73;6.63;;;4.60;99.90;;;;;;5013031;28;20178;-79
2021/01/25 01:53:26;;;;;;;11.00;5.30;;;4.60;99.90;;;;;;5013217;28;20479;-79
2021/01/25 01:55:55;;;;;;;10.23;5.90;;;4.60;99.90;;;;;;5015124;28;20240;-79
2021/01/25 01:58:23;;;;;;;11.07;6.00;;;4.60;99.90;;;;;;4981011;28;20515;-79
2021/01/25 02:00:49;;;;;;;9.98;5.97;;;4.60;99.90;;;;;;5012761;28;20181;-79
2021/01/25 02:03:15;;;;;;;15.07;7.43;;;4.60;99.90;;;;;;5013173;28;20182;-79
2021/01/25 02:05:42;;;;;;;11.73;6.93;;;4.60;99.90;;;;;;4995367;28;20276;-79
2021/01/25 02:08:09;;;;;;;11.88;6.32;;;4.70;99.90;;;;;;4980244;28;20555;-80
2021/01/25 02:10:36;;;;;;;15.65;6.45;;;4.60;99.90;;;;;;5014431;28;20518;-79
2021/01/25 02:13:02;;;;;;;9.75;6.03;;;4.20;99.90;;;;;;5017347;28;20565;-79
2021/01/25 02:15:30;;;;;;;15.45;7.35;;;4.30;99.90;;;;;;4986645;28;20198;-79
2021/01/25 02:17:57;;;;;;;13.45;7.55;;;4.30;99.90;;;;;;5021088;28;20186;-79
2021/01/25 02:20:31;;;;;;;16.40;9.00;;;4.30;99.90;;;;;;4989509;28;20197;-79
2021/01/25 02:22:57;;;;;;;12.40;7.03;;;4.30;99.90;;;;;;5019403;28;20504;-79
2021/01/25 02:25:47;;;;;;;10.80;6.23;;;4.30;99.90;;;;;;5018212;28;20228;-79
2021/01/25 02:28:13;;;;;;;10.50;6.22;;;4.30;99.90;;;;;;5012070;28;21170;-79
2021/01/25 02:30:39;;;;;;;15.30;6.85;;;4.20;99.90;;;;;;5015463;28;20804;-79
2021/01/25 02:33:07;;;;;;;13.47;6.63;;;4.30;99.90;;;;;;5014969;28;20209;-79
2021/01/25 02:35:35;;;;;;;10.77;6.43;;;4.20;99.90;;;;;;5015188;28;20483;-79
2021/01/25 02:38:01;;;;;;;11.35;6.30;;;3.90;99.90;;;;;;5016167;28;20166;-79
2021/01/25 02:40:29;;;;;;;13.13;6.40;;;4.00;99.90;;;;;;5015112;28;20166;-79
2021/01/25 02:42:56;;;;;;;10.35;6.28;;;4.10;99.90;;;;;;5016045;28;20182;-79
2021/01/25 02:45:23;;;;;;;11.85;6.10;;;4.00;99.90;;;;;;5015069;28;20190;-80
2021/01/25 02:47:50;;;;;;;13.80;7.07;;;4.10;99.90;;;;;;5016836;28;20178;-80
2021/01/25 02:50:16;;;;;;;13.70;8.25;;;4.10;99.90;;;;;;5015315;28;20253;-80
2021/01/25 02:52:41;;;;;;;12.10;7.47;;;4.00;99.90;;;;;;5020255;28;20303;-79
2021/01/25 02:55:08;;;;;;;16.20;9.07;;;4.00;99.90;;;;;;5015621;28;20787;-79
2021/01/25 02:57:36;;;;;;;13.05;6.97;;;4.00;99.90;;;;;;5018157;28;20244;-79
2021/01/25 03:00:06;;;;;;;12.70;6.50;;;4.10;99.90;;;;;;5015435;28;20273;-79
2021/01/25 03:02:32;;;;;;;14.00;9.30;;;4.10;99.90;;;;;;5016188;28;20660;-79
2021/01/25 03:05:00;;;;;;;20.00;8.63;;;4.10;99.90;;;;;;5016091;28;20273;-79
2021/01/25 03:07:26;;;;;;;13.52;8.27;;;4.00;99.90;;;;;;5015965;28;20405;-79
2021/01/25 03:09:52;;;;;;;13.02;8.68;;;3.90;99.90;;;;;;5014627;28;20224;-79
2021/01/25 03:12:18;;;;;;;13.23;7.73;;;3.90;99.90;;;;;;5015019;28;20186;-79
2021/01/25 03:14:45;;;;;;;11.98;7.88;;;3.90;99.90;;;;;;5016049;28;20221;-79
2021/01/25 03:17:11;;;;;;;14.25;7.50;;;4.00;99.90;;;;;;5015826;28;20557;-79
2021/01/25 03:19:37;;;;;;;16.05;7.82;;;4.00;99.90;;;;;;5015779;28;20747;-79
2021/01/25 03:22:03;;;;;;;16.53;7.50;;;4.10;99.90;;;;;;5014286;28;20207;-79
2021/01/25 03:24:28;;;;;;;14.73;7.13;;;4.20;99.90;;;;;;5014779;28;20645;-79
2021/01/25 03:26:54;;;;;;;12.10;6.37;;;4.10;99.90;;;;;;5015823;28;20454;-79
2021/01/25 03:29:20;;;;;;;12.27;6.77;;;4.30;99.90;;;;;;5015533;28;20174;-79
2021/01/25 03:31:45;;;;;;;10.80;7.03;;;4.20;99.90;;;;;;5015245;28;20265;-79
2021/01/25 03:34:11;;;;;;;13.00;5.47;;;4.10;99.90;;;;;;5015066;28;20205;-79
2021/01/25 03:36:37;;;;;;;11.03;6.40;;;3.90;99.90;;;;;;5016870;28;20252;-79
2021/01/25 03:39:04;;;;;;;13.65;7.38;;;4.00;99.90;;;;;;5016991;28;20248;-78
2021/01/25 03:41:30;;;;;;;12.38;6.05;;;3.90;99.90;;;;;;5019182;28;20174;-79
2021/01/25 03:43:56;;;;;;;9.20;5.30;;;4.00;99.90;;;;;;5018226;28;20329;-79
2021/01/25 03:46:21;;;;;;;7.47;5.30;;;4.10;99.90;;;;;;5015695;28;20673;-79
2021/01/25 03:48:47;;;;;;;11.37;5.43;;;4.20;99.90;;;;;;5015695;28;20193;-79
2021/01/25 03:51:14;;;;;;;7.60;5.57;;;4.20;99.90;;;;;;5014727;28;20174;-78
2021/01/25 03:53:40;;;;;;;8.85;5.60;;;4.30;99.90;;;;;;5019605;28;20615;-78
2021/01/25 03:56:06;;;;;;;8.93;5.57;;;4.30;99.90;;;;;;5025758;28;20225;-78
2021/01/25 03:58:32;;;;;;;10.73;6.43;;;4.30;99.90;;;;;;5008176;28;20182;-78
2021/01/25 04:00:57;;;;;;;8.43;5.27;;;4.30;99.90;;;;;;5025557;28;20182;-78
2021/01/25 04:03:23;;;;;;;10.73;5.87;;;4.20;99.90;;;;;;5026681;28;20266;-78
2021/01/25 04:05:49;;;;;;;11.53;5.97;;;4.30;99.90;;;;;;5028788;28;20198;-79
2021/01/25 04:08:15;;;;;;;13.47;5.37;;;4.30;99.90;;;;;;5038443;28;20174;-78
2021/01/25 04:10:41;;;;;;;11.30;6.57;;;4.30;99.90;;;;;;5038519;28;20159;-78
2021/01/25 04:13:06;;;;;;;11.10;6.00;;;4.20;99.90;;;;;;5020737;28;20270;-78
2021/01/25 04:15:32;;;;;;;11.07;6.10;;;4.20;99.90;;;;;;5016750;28;20202;-80
2021/01/25 04:17:59;;;;;;;14.33;7.00;;;4.20;99.90;;;;;;5016163;28;20566;-77
2021/01/25 04:20:24;;;;;;;9.35;5.40;;;4.20;99.90;;;;;;5014988;28;20174;-79
2021/01/25 04:22:50;;;;;;;9.87;6.13;;;4.20;99.90;;;;;;5015414;28;20173;-79
2021/01/25 04:25:16;;;;;;;10.83;6.60;;;4.20;99.90;;;;;;4997243;28;20198;-80
2021/01/25 04:27:41;;;;;;;7.40;5.23;;;4.20;99.90;;;;;;5013387;28;20818;-79
2021/01/25 04:30:11;;;;;;;9.60;5.80;;;4.30;99.90;;;;;;5014877;28;20197;-79
2021/01/25 04:32:38;;;;;;;11.52;6.57;;;4.30;99.90;;;;;;5014405;28;20201;-79
2021/01/25 04:35:11;;;;;;;13.45;7.00;;;4.20;99.90;;;;;;5014629;28;20170;-79
2021/01/25 04:37:38;;;;;;;14.02;6.78;;;4.20;99.90;;;;;;5015308;28;20576;-79
2021/01/25 04:40:13;;;;;;;16.83;8.32;;;4.20;99.90;;;;;;5015098;28;20158;-79
2021/01/25 04:42:40;;;;;;;13.32;7.03;;;4.20;99.90;;;;;;5014081;28;20177;-79
2021/01/25 04:45:15;;;;;;;12.70;7.20;;;4.10;99.90;;;;;;5016022;28;20257;-79
2021/01/25 04:47:45;;;;;;;15.60;6.82;;;4.20;99.90;;;;;;5021840;28;20587;-79
2021/01/25 04:50:11;;;;;;;14.75;6.70;;;4.20;99.90;;;;;;5019320;28;20724;-79
2021/01/25 04:52:47;;;;;;;11.60;7.33;;;4.20;99.90;;;;;;5012609;28;20284;-79
2021/01/25 04:55:14;;;;;;;13.05;6.78;;;4.30;99.90;;;;;;5012779;28;20931;-79
2021/01/25 04:57:43;;;;;;;10.80;7.03;;;4.20;99.90;;;;;;5013867;28;20657;-80
2021/01/25 05:00:10;;;;;;;13.13;6.82;;;4.30;99.90;;;;;;5012854;28;20541;-79
2021/01/25 05:02:37;;;;;;;11.18;5.95;;;4.30;99.90;;;;;;5014264;28;20563;-79
2021/01/25 05:05:07;;;;;;;11.18;6.55;;;4.30;99.90;;;;;;5013387;28;20174;-79
2021/01/25 05:07:33;;;;;;;16.45;8.80;;;4.30;99.90;;;;;;5014123;28;20253;-80
2021/01/25 05:09:59;;;;;;;11.60;7.20;;;4.40;99.90;;;;;;5014570;28;20823;-79
2021/01/25 05:12:27;;;;;;;12.77;7.45;;;4.40;99.90;;;;;;5013389;28;20216;-80
2021/01/25 05:14:52;;;;;;;11.35;6.90;;;4.40;99.90;;;;;;5016905;28;20220;-80
2021/01/25 05:17:18;;;;;;;14.57;6.93;;;4.30;99.90;;;;;;5015050;28;20645;-80
2021/01/25 05:19:45;;;;;;;19.43;7.93;;;4.40;99.90;;;;;;5015203;28;20202;-81
2021/01/25 05:22:19;;;;;;;13.93;7.97;;;4.30;99.90;;;;;;4997166;28;20256;-80
2021/01/25 05:24:50;;;;;;;18.35;8.00;;;4.40;99.90;;;;;;5016007;28;20173;-80
2021/01/25 05:27:31;;;;;;;12.98;8.20;;;4.10;99.90;;;;;;5016199;28;20182;-79
2021/01/25 05:30:12;;;;;;;23.33;8.85;;;4.20;99.90;;;;;;5014097;28;20174;-79
2021/01/25 05:32:49;;;;;;;12.02;7.97;;;4.30;99.90;;;;;;5014240;28;20229;-78
2021/01/25 05:35:17;;;;;;;18.05;9.00;;;4.30;99.90;;;;;;5015491;28;20213;-79
2021/01/25 05:38:18;;;;;;;15.32;6.75;;;4.30;99.90;;;;;;5014732;28;20636;-80
2021/01/25 05:40:54;;;;;;;16.15;8.32;;;4.40;99.90;;;;;;5011304;28;20184;-79
2021/01/25 05:43:19;;;;;;;20.38;8.77;;;4.50;99.90;;;;;;5011401;28;20613;-79
2021/01/25 05:45:45;;;;;;;17.07;8.63;;;4.60;99.90;;;;;;4994658;28;20216;-80
2021/01/25 05:48:14;;;;;;;14.73;8.80;;;4.50;99.90;;;;;;4980268;28;20174;-79
2021/01/25 05:50:46;;;;;;;19.42;9.70;;;4.50;99.90;;;;;;4994877;28;20179;-80
2021/01/25 05:53:13;;;;;;;16.63;9.60;;;4.50;99.90;;;;;;4979757;28;20222;-79
2021/01/25 05:55:40;;;;;;;20.80;9.70;;;4.50;99.90;;;;;;5005219;28;20284;-81
2021/01/25 05:58:07;;;;;;;17.98;9.23;;;4.60;99.90;;;;;;5008130;28;20866;-81
2021/01/25 06:00:35;;;;;;;12.90;7.53;;;4.50;99.90;;;;;;5014381;28;20204;-79
2021/01/25 06:03:02;;;;;;;17.17;9.38;;;4.50;99.90;;;;;;5011298;28;20724;-79
2021/01/25 06:05:30;;;;;;;17.50;8.70;;;4.40;99.90;;;;;;5011682;28;20205;-79
2021/01/25 06:08:16;;;;;;;17.65;9.27;;;4.30;99.90;;;;;;5010637;28;20174;-78
2021/01/25 06:10:51;;;;;;;18.48;8.50;;;4.30;99.90;;;;;;5011833;28;20193;-79
2021/01/25 06:13:20;;;;;;;21.30;10.50;;;4.70;99.90;;;;;;5012088;28;20719;-79
2021/01/25 06:15:51;;;;;;;17.25;8.98;;;4.80;99.90;;;;;;5013964;28;20186;-80
2021/01/25 06:18:19;;;;;;;20.55;10.00;;;4.80;99.90;;;;;;5013136;28;20174;-78
2021/01/25 06:20:47;;;;;;;19.27;8.70;;;4.70;99.90;;;;;;5012376;28;20182;-79
2021/01/25 06:23:13;;;;;;;20.38;9.30;;;4.80;99.90;;;;;;5012386;28;20206;-79
2021/01/25 06:25:39;;;;;;;20.52;9.00;;;4.60;99.90;;;;;;5010877;28;20206;-78
2021/01/25 06:28:05;;;;;;;17.83;9.45;;;4.60;99.90;;;;;;5011118;28;20182;-79
2021/01/25 06:30:31;;;;;;;21.23;10.90;;;4.50;99.90;;;;;;5011396;28;20243;-79
2021/01/25 06:32:58;;;;;;;27.65;10.63;;;4.30;99.90;;;;;;5014112;28;20198;-78
2021/01/25 06:35:29;;;;;;;22.25;10.48;;;4.30;99.90;;;;;;5014078;28;20198;-79
2021/01/25 06:37:57;;;;;;;17.30;9.23;;;4.10;99.90;;;;;;5013272;28;20182;-79
2021/01/25 06:40:25;;;;;;;21.48;10.57;;;4.10;99.90;;;;;;5014115;28;20182;-79
2021/01/25 06:42:53;;;;;;;17.88;9.90;;;4.20;99.90;;;;;;5014852;28;20182;-79
2021/01/25 06:45:25;;;;;;;16.75;9.57;;;4.20;99.90;;;;;;5014005;28;20205;-79
2021/01/25 06:47:52;;;;;;;22.80;12.02;;;4.20;99.90;;;;;;5013102;28;20170;-79
2021/01/25 06:50:25;;;;;;;17.63;9.73;;;4.10;99.90;;;;;;5012065;28;20200;-79
2021/01/25 06:52:57;;;;;;;20.60;11.15;;;4.10;99.90;;;;;;5011896;28;20202;-80
2021/01/25 06:55:35;;;;;;;21.88;10.40;;;4.10;99.90;;;;;;5014908;28;20194;-81
2021/01/25 06:58:11;;;;;;;23.98;9.23;;;3.90;99.90;;;;;;5014688;28;20193;-80
2021/01/25 07:00:44;;;;;;;17.20;9.93;;;4.10;99.90;;;;;;5005441;28;20260;-81
2021/01/25 07:03:22;;;;;;;22.02;11.25;;;4.10;99.90;;;;;;5017930;28;20191;-80
2021/01/25 07:05:50;;;;;;;17.40;9.27;;;4.10;99.90;;;;;;5005097;28;20253;-81
2021/01/25 07:08:20;;;;;;;33.75;12.90;;;4.10;99.90;;;;;;5016901;28;20208;-78
2021/01/25 07:10:56;;;;;;;21.08;10.20;;;4.40;99.90;;;;;;5016956;28;20593;-81
2021/01/25 07:13:30;;;;;;;20.52;10.77;;;4.50;99.90;;;;;;5014922;28;20692;-79
2021/01/25 07:15:57;;;;;;;25.38;10.82;;;4.40;99.90;;;;;;5002371;28;20201;-81
2021/01/25 07:18:24;;;;;;;29.67;12.70;;;4.00;99.90;;;;;;5013916;28;20200;-80
2021/01/25 07:20:51;;;;;;;21.95;12.55;;;3.80;99.90;;;;;;4999946;28;20189;-80
2021/01/25 07:23:19;;;;;;;20.85;10.63;;;4.10;99.90;;;;;;4998747;28;20195;-80
2021/01/25 07:25:51;;;;;;;23.75;10.98;;;4.10;99.90;;;;;;5017848;28;20253;-81
2021/01/25 07:28:17;;;;;;;25.58;11.07;;;4.10;99.90;;;;;;5015568;28;20220;-80
2021/01/25 07:30:42;;;;;;;17.40;10.53;;;4.10;99.90;;;;;;5016828;28;20186;-80
2021/01/25 07:33:08;;;;;;;22.50;10.60;;;4.10;99.90;;;;;;5015219;28;20319;-79
2021/01/25 07:35:34;;;;;;;19.77;10.03;;;4.10;99.90;;;;;;5014814;28;20611;-80
2021/01/25 07:37:59;;;;;;;25.10;11.97;;;4.20;99.90;;;;;;5015456;28;20189;-79
2021/01/25 07:40:25;;;;;;;23.47;10.93;;;4.30;99.90;;;;;;5015713;28;20756;-78
2021/01/25 07:42:52;;;;;;;21.50;10.30;;;4.20;99.90;;;;;;5013828;28;20174;-79
2021/01/25 07:45:20;;;;;;;21.58;9.73;;;4.10;99.90;;;;;;5016431;28;20198;-79
2021/01/25 07:47:46;;;;;;;22.58;11.93;;;3.90;99.90;;;;;;5014990;28;20224;-80
2021/01/25 07:50:13;;;;;;;27.93;12.17;;;3.90;99.90;;;;;;5018741;28;20178;-78
2021/01/25 07:52:39;;;;;;;19.70;10.10;;;3.90;99.90;;;;;;5017172;28;20971;-78
2021/01/25 07:55:15;;;;;;;20.92;9.88;;;3.90;99.90;;;;;;5010510;28;20189;-77
2021/01/25 07:57:44;;;;;;;19.42;9.68;;;3.60;99.90;;;;;;5013602;28;20600;-77
2021/01/25 08:00:20;;;;;;;16.50;8.15;;;3.70;99.90;;;;;;5013679;28;20178;-77
2021/01/25 08:03:47;;;;;;;20.40;9.70;;;3.70;99.90;;;;;;5012892;28;20277;-78
2021/01/25 08:06:14;;;;;;;19.08;8.55;;;3.70;99.90;;;;;;4977285;28;20206;-78
2021/01/25 08:08:44;;;;;;;20.55;10.43;;;3.90;99.90;;;;;;5018099;28;20191;-77
2021/01/25 08:11:10;;;;;;;19.45;9.15;;;4.10;99.90;;;;;;5010211;28;20171;-78
2021/01/25 08:13:45;;;;;;;19.15;10.23;;;4.20;99.90;;;;;;5011427;28;20685;-79
2021/01/25 08:16:18;;;;;;;23.52;11.10;;;4.30;99.90;;;;;;5013212;28;20603;-79
2021/01/25 08:18:54;;;;;;;15.95;9.15;;;4.10;99.90;;;;;;5013389;28;20178;-78
2021/01/25 08:21:31;;;;;;;21.75;10.35;;;4.30;99.90;;;;;;5013986;28;20158;-78
2021/01/25 08:24:01;;;;;;;16.33;8.40;;;4.30;99.90;;;;;;5014001;28;20204;-77
2021/01/25 08:26:28;;;;;;;19.33;11.18;;;4.40;99.90;;;;;;5014241;28;20194;-78
2021/01/25 08:28:58;;;;;;;17.15;10.35;;;4.50;99.90;;;;;;4997986;28;20178;-78
2021/01/25 08:31:33;;;;;;;19.40;8.98;;;4.50;99.90;;;;;;5012197;28;20178;-78
2021/01/25 08:34:03;;;;;;;22.38;10.52;;;4.50;99.90;;;;;;5012265;28;20256;-78
2021/01/25 08:36:35;;;;;;;16.50;10.25;;;4.30;99.90;;;;;;5014237;28;20236;-77
2021/01/25 08:39:44;;;;;;;14.38;8.48;;;4.30;99.90;;;;;;5015534;28;20251;-78
2021/01/25 08:42:30;;;;;;;13.73;7.75;;;4.30;99.90;;;;;;5018988;28;20180;-79
2021/01/25 08:45:04;;;;;;;14.23;8.02;;;4.10;99.90;;;;;;5024454;28;20170;-79
2021/01/25 08:47:35;;;;;;;13.65;7.38;;;3.90;99.90;;;;;;5020769;28;20268;-79
2021/01/25 08:50:02;;;;;;;16.73;9.02;;;3.70;99.90;;;;;;5006946;28;20220;-79
2021/01/25 08:52:39;;;;;;;16.58;8.63;;;3.70;99.90;;;;;;5016148;28;20692;-78
2021/01/25 08:55:37;;;;;;;15.00;8.20;;;4.00;99.90;;;;;;5013745;28;20170;-79
2021/01/25 08:58:31;;;;;;;15.02;8.07;;;3.90;99.90;;;;;;5019072;28;20193;-80
2021/01/25 09:00:58;;;;;;;15.80;9.02;;;4.10;99.90;;;;;;5015371;28;20219;-79
2021/01/25 09:03:24;;;;;;;15.85;7.95;;;4.20;99.90;;;;;;5013855;28;20177;-80
2021/01/25 09:05:54;;;;;;;19.60;9.70;;;4.30;99.90;;;;;;5015215;28;20663;-78
2021/01/25 09:08:21;;;;;;;17.92;7.60;;;4.20;99.90;;;;;;5014364;28;20202;-78
2021/01/25 09:10:49;;;;;;;22.85;10.57;;;4.30;99.90;;;;;;5017537;28;20263;-81
2021/01/25 09:13:15;;;;;;;22.15;9.50;;;4.40;99.90;;;;;;5022234;28;20252;-78
2021/01/25 09:15:40;;;;;;;24.07;9.00;;;4.50;99.90;;;;;;5022952;28;20198;-79
2021/01/25 09:18:07;;;;;;;21.43;9.20;;;4.20;99.90;;;;;;5003939;28;20471;-79
2021/01/25 09:20:33;;;;;;;18.30;8.93;;;4.00;99.90;;;;;;5005448;28;20189;-79
2021/01/25 09:22:59;;;;;;;16.00;8.98;;;4.10;99.90;;;;;;5023472;28;20182;-80
2021/01/25 09:25:25;;;;;;;24.27;11.15;;;4.30;99.90;;;;;;5016798;28;20280;-79
2021/01/25 09:27:54;;;;;;;20.53;7.60;;;4.50;99.90;;;;;;5014702;28;20332;-79
2021/01/25 09:30:19;;;;;;;19.10;9.05;;;4.40;99.90;;;;;;5015652;28;20185;-79
2021/01/25 09:32:45;;;;;;;26.25;11.38;;;4.20;99.90;;;;;;5019784;28;20206;-80
2021/01/25 09:35:14;;;;;;;16.35;8.73;;;4.20;99.90;;;;;;5022428;28;20307;-80
2021/01/25 09:37:39;;;;;;;19.83;9.77;;;4.40;99.90;;;;;;5017080;28;20185;-78
2021/01/25 09:40:09;;;;;;;20.93;9.70;;;4.50;99.90;;;;;;5012717;28;20182;-79
2021/01/25 09:42:34;;;;;;;24.25;9.95;;;4.50;99.90;;;;;;5013806;28;20181;-78
2021/01/25 09:45:00;;;;;;;18.13;8.87;;;4.50;99.90;;;;;;5012124;28;20229;-78
2021/01/25 09:47:25;;;;;;;17.03;9.30;;;4.30;99.90;;;;;;5012979;28;20553;-78
2021/01/25 09:49:51;;;;;;;17.27;9.00;;;4.40;99.90;;;;;;5014180;28;20557;-78
2021/01/25 09:52:17;;;;;;;19.10;10.47;;;4.20;99.90;;;;;;5016258;28;20190;-80
2021/01/25 09:54:42;;;;;;;14.70;8.77;;;4.40;99.90;;;;;;4999654;28;20185;-81
2021/01/25 09:57:09;;;;;;;21.00;9.63;;;4.20;99.90;;;;;;5024068;28;20286;-81
2021/01/25 09:59:34;;;;;;;15.93;8.20;;;4.00;99.90;;;;;;5003595;28;20181;-81
2021/01/25 10:02:00;;;;;;;16.60;9.03;;;4.10;99.90;;;;;;5001533;28;20205;-80
2021/01/25 10:04:26;;;;;;;14.37;6.77;;;4.30;99.90;;;;;;5015371;28;20185;-78
2021/01/25 10:06:51;;;;;;;14.90;8.60;;;4.20;99.90;;;;;;5016138;28;20189;-79
2021/01/25 10:09:17;;;;;;;13.30;7.20;;;4.50;99.90;;;;;;5016808;28;20224;-79
2021/01/25 10:11:43;;;;;;;18.23;8.88;;;4.50;99.90;;;;;;5018805;28;20170;-78
2021/01/25 10:14:09;;;;;;;22.33;9.53;;;4.50;99.90;;;;;;5018053;28;20220;-79
2021/01/25 10:16:34;;;;;;;25.50;9.43;;;4.70;99.90;;;;;;5000685;28;20206;-79
2021/01/25 10:19:09;;;;;;;19.80;9.83;;;4.70;99.90;;;;;;5015836;28;20185;-78
2021/01/25 10:21:35;;;;;;;15.32;8.50;;;4.60;99.90;;;;;;5014403;28;20240;-79
2021/01/25 10:24:00;;;;;;;15.23;8.17;;;4.80;99.90;;;;;;4998416;28;20178;-79
2021/01/25 10:26:26;;;;;;;15.13;8.00;;;4.70;99.90;;;;;;4998227;28;20677;-79
2021/01/25 10:28:54;;;;;;;18.20;9.07;;;4.50;99.90;;;;;;5012489;28;20529;-78
2021/01/25 10:31:20;;;;;;;21.23;9.43;;;4.60;99.90;;;;;;5012101;28;20174;-78
2021/01/25 10:33:46;;;;;;;12.75;6.93;;;4.90;99.90;;;;;;5016124;28;20198;-78
2021/01/25 10:36:12;;;;;;;14.77;8.63;;;4.80;99.90;;;;;;5016750;28;20191;-78
2021/01/25 10:38:37;;;;;;;17.43;8.37;;;4.90;99.90;;;;;;5022154;28;20252;-80
2021/01/25 10:41:05;;;;;;;19.77;8.97;;;5.00;99.90;;;;;;5018295;28;20182;-79
2021/01/25 10:43:30;;;;;;;19.77;9.38;;;5.00;99.90;;;;;;5016903;28;20771;-77
2021/01/25 10:45:56;;;;;;;16.33;6.87;;;5.00;99.90;;;;;;5016718;28;20198;-79
2021/01/25 10:48:22;;;;;;;14.80;7.30;;;4.80;99.90;;;;;;4987950;28;20186;-79
2021/01/25 10:50:47;;;;;;;15.10;7.57;;;4.90;99.90;;;;;;5022413;28;20174;-79
2021/01/25 10:53:13;;;;;;;13.00;7.80;;;4.70;99.90;;;;;;5020136;28;20198;-78
2021/01/25 10:55:38;;;;;;;19.60;9.13;;;4.70;99.90;;;;;;5003700;28;20209;-80
2021/01/25 10:58:04;;;;;;;13.60;8.43;;;4.70;99.90;;;;;;4989451;28;20186;-79
2021/01/25 11:00:30;;;;;;;13.27;6.53;;;4.50;99.90;;;;;;5036271;28;20392;-79
2021/01/25 11:02:55;;;;;;;17.50;8.20;;;4.60;99.90;;;;;;5033636;28;20189;-79
2021/01/25 11:05:25;;;;;;;21.67;7.47;;;4.40;99.90;;;;;;5035469;28;20456;-78
2021/01/25 11:07:51;;;;;;;24.02;10.48;;;4.30;99.90;;;;;;5035917;28;20196;-78
2021/01/25 11:10:22;;;;;;;10.20;6.53;;;4.20;99.90;;;;;;5029083;28;20178;-79
2021/01/25 11:12:48;;;;;;;11.00;6.55;;;4.40;99.90;;;;;;5020302;28;20555;-80
2021/01/25 11:15:14;;;;;;;16.48;7.65;;;4.60;99.90;;;;;;5018145;28;20190;-79
2021/01/25 11:17:40;;;;;;;16.63;7.20;;;4.70;99.90;;;;;;5015455;28;20174;-79
2021/01/25 11:20:06;;;;;;;13.57;7.83;;;4.50;99.90;;;;;;5009689;28;20384;-78
2021/01/25 11:22:32;;;;;;;14.82;7.75;;;4.70;99.90;;;;;;5019676;28;20475;-79
2021/01/25 11:25:34;;;;;;;16.63;8.50;;;5.00;99.90;;;;;;5009496;28;20182;-80
2021/01/25 11:27:59;;;;;;;16.42;8.40;;;4.80;99.90;;;;;;5008434;28;20192;-79
2021/01/25 11:30:25;;;;;;;14.20;6.30;;;4.90;99.90;;;;;;5009534;28;20178;-80
2021/01/25 11:32:51;;;;;;;15.40;7.63;;;4.90;99.90;;;;;;5022771;28;20233;-80
2021/01/25 11:35:16;;;;;;;11.50;6.87;;;4.90;99.90;;;;;;5005110;28;20229;-79
2021/01/25 11:37:42;;;;;;;17.53;7.80;;;4.80;99.90;;;;;;5026370;28;20220;-79
2021/01/25 11:40:08;;;;;;;11.03;6.40;;;4.50;99.90;;;;;;4994081;28;20271;-79
2021/01/25 11:42:34;;;;;;;14.02;7.22;;;4.70;99.90;;;;;;5008299;28;20193;-79
2021/01/25 11:45:00;;;;;;;11.50;7.43;;;4.90;99.90;;;;;;5023760;28;20185;-80
2021/01/25 11:47:25;;;;;;;14.20;7.60;;;5.00;99.90;;;;;;5008415;28;20266;-79
2021/01/25 11:49:51;;;;;;;14.50;8.30;;;5.00;99.90;;;;;;5021863;28;20725;-78
2021/01/25 11:52:17;;;;;;;14.20;8.07;;;5.10;99.90;;;;;;5023753;28;20250;-79
2021/01/25 11:54:43;;;;;;;13.07;7.80;;;4.90;99.90;;;;;;5025003;28;20190;-79
2021/01/25 11:57:08;;;;;;;15.60;7.47;;;5.00;99.90;;;;;;5010501;28;20319;-80
2021/01/25 12:02:30;;;;;;;15.82;8.13;;;4.60;99.90;;;;;;4995065;28;20542;-79
2021/01/25 12:04:56;;;;;;;20.30;7.43;;;4.40;99.90;;;;;;5021174;28;20170;-79
2021/01/25 12:07:22;;;;;;;10.87;6.10;;;4.30;99.90;;;;;;5022059;28;20237;-79
2021/01/25 12:09:48;;;;;;;15.13;7.55;;;4.50;99.90;;;;;;5016414;28;20190;-79
2021/01/25 12:12:22;;;;;;;16.00;7.17;;;4.60;99.90;;;;;;5016373;28;20265;-79
2021/01/25 12:14:48;;;;;;;16.38;8.50;;;4.40;99.90;;;;;;5018091;28;20217;-80
2021/01/25 12:17:13;;;;;;;17.73;7.10;;;4.50;99.90;;;;;;5016249;28;20575;-79
2021/01/25 12:19:40;;;;;;;17.37;7.47;;;4.60;99.90;;;;;;5015275;28;20174;-79
2021/01/25 12:22:05;;;;;;;12.50;6.82;;;4.80;99.90;;;;;;5017665;28;20671;-80
2021/01/25 12:24:31;;;;;;;15.47;6.90;;;4.90;99.90;;;;;;4999051;28;20183;-80
2021/01/25 12:26:56;;;;;;;20.93;9.80;;;4.90;99.90;;;;;;5015433;28;20273;-79
2021/01/25 12:29:22;;;;;;;13.80;7.57;;;5.00;99.90;;;;;;5000217;28;20238;-80
2021/01/25 12:31:48;;;;;;;13.67;8.20;;;5.10;99.90;;;;;;5015165;28;20182;-80
2021/01/25 12:34:15;;;;;;;14.75;8.90;;;5.10;99.90;;;;;;5013861;28;20269;-80
2021/01/25 12:36:43;;;;;;;26.25;8.48;;;5.20;99.90;;;;;;5015710;28;20194;-79
2021/01/25 12:39:09;;;;;;;17.77;8.15;;;5.10;99.90;;;;;;5019641;28;20189;-80
2021/01/25 12:41:34;;;;;;;21.20;9.00;;;5.20;99.90;;;;;;4982888;28;20175;-81
2021/01/25 12:44:01;;;;;;;17.27;9.60;;;5.10;99.90;;;;;;4997540;28;20520;-78
2021/01/25 12:46:30;;;;;;;16.10;7.75;;;5.20;99.90;;;;;;5012467;28;20193;-78
2021/01/25 12:48:56;;;;;;;16.90;8.30;;;5.30;99.90;;;;;;5016593;28;20202;-77
2021/01/25 12:51:21;;;;;;;19.73;9.77;;;5.00;99.90;;;;;;5005838;28;20190;-79
2021/01/25 12:53:47;;;;;;;17.07;8.87;;;5.10;99.90;;;;;;5021521;28;20201;-78